Decoded Metar for VDSR (SIEM-REAP in CAMBODIA) (IATA:REP) | Meteo·Mobile Aviation Weather
aviador You're here:

VDSR Decoded Metar

SIEM-REAP in CAMBODIA
Report Time2019-07-23 03:00:00
UTC Time2019-07-23 03:20:53
Flight Rules vfr VFR
Wind200° at 06 kt
W.Decomp.*RWY 23: 5.2 kt HW 3 kt LCW
Visibility9999 m
Phenomena:N/A
Clouds:Scattered 015 Hf
Scattered 040 Hf
Expected CloudBase > 2,800 ft AGL from Temp-Dew spread
CeilingNone
Temp31°C (ISA +16)
Dew Point24°C (66% RH)
Heat Index36.4°C
QNH1007 hPa
Density Alt2,484 ft
Elevation49 ft
Report Wrong Elevation
Raw Report
VDSR 230300Z 20006KT 9999 SCT015 SCT040 31/24 Q1007=

Extra information for VDSR:More info

Metar Taf Metar & Taf Last 4 Metars F.Rules Stats Wind Profile Meteogram Temp Stats Airport Information Weather charts Add Link Nearby VenuesMetar ALERT Operation Metar Decoded Social comments